Tiempo atmosférico en la estación meteorológica de Castuera , Badajoz (512 m.)



Fecha
DESCASC
Temp. máxima en grados centígrados (hora)
DESCASC
Temp. mínima en grados centígrados (hora)
DESCASC
Temp. media en grados centígrados
DESCASC
Racha de viento máxima en m/sg (hora)
DESCASC
Velocidad máxima media en intervalos de 10 minutos(hora)
DESCASC
Precipitaciones diarias en mm
DESCASC
Precipitaciones de 00:00 a 06:00 en mm
DESCASC
Precipitaciones de 06:00 a 12:00 en mm
DESCASC
Precipitaciones de 12:00 a 18:00 en mm
DESCASC
Precipitaciones de 18:00 a 24:00 en mm
DESCASC
06-07-2020 39.8 (17:30) 25.8 (07:30) 32.8 9.44 (17:00) 5.28 (19:10) 0 0 0 0 0
05-07-2020 39.8 (16:10) 24.9 (06:00) 32.3 10.28 (19:00) 5.56 (19:10) 0 0 0 0 0
04-07-2020 37.1 (16:40) 20.2 (07:40) 28.6 15 (14:50) 4.44 (19:20) 0 0 0 0 0
03-07-2020 32.6 (18:00) 13.5 (07:10) 23 7.78 (18:20) 3.89 (19:10) 0 0 0 0 0
02-07-2020 32.3 (17:30) 18.2 (00:00) 25.3 11.39 (17:20) 6.94 (20:00) 0 0 0 0 0
01-07-2020 35.5 (18:00) 21.1 (00:00) 28.3 9.44 (17:20) 5 (16:40) 0 0 0 0 0
30-06-2020 38.1 (15:40) 24.4 (00:00) 31.2 10 (19:20) 6.11 (18:30) 0 0 0 0 0
29-06-2020 38.1 (16:30) 21.8 (00:00) 29.9 9.44 (18:20) 5 (18:20) 0 0 0 0 0
28-06-2020 34.6 (17:20) 18.9 (00:00) 26.7 8.33 (19:00) 4.72 (19:00) 0 0 0 0 0
27-06-2020 31.7 (17:50) 15.9 (00:00) 23.8 8.89 (16:00) 4.17 (15:10) 0 0 0 0 0
26-06-2020 30.4 (16:50) 17.9 (00:00) 24.1 11.11 (16:50) 6.11 (19:10) 0 0 0 0 0
25-06-2020 36.7 (16:20) 21.9 (00:00) 29.3 9.17 (14:20) 5.83 (17:30) 0 0 0 0 0
24-06-2020 38.3 (17:20) 22.6 (00:00) 30.4 13.61 (18:40) 6.11 (19:40) 0 0 0 0 0
23-06-2020 40.3 (18:50) 25.8 (00:00) 33 16.94 (22:00) 8.33 (20:50) 0 0 0 0 0
22-06-2020 39.3 (18:00) 21.9 (00:00) 30.6 9.17 (17:00) 5.56 (18:40) 0 0 0 0 0
21-06-2020 34 (17:40) 16.6 (00:00) 25.3 7.5 (17:40) 3.61 (16:40) 0 0 0 0 0
20-06-2020 33.7 (16:40) 17.8 (00:00) 25.8 10 (18:00) 6.11 (18:10) 0 0 0 0 0
19-06-2020 30.7 (16:20) 13.6 (00:00) 22.2 8.89 (13:40) 5 (16:30) 0 0 0 0 0
18-06-2020 30.1 (16:00) 13.2 (00:00) 21.7 10.83 (19:00) 5.56 (20:30) 0 0 0 0 0
17-06-2020 25.9 (18:40) 11.6 (00:00) 18.8 9.72 (18:00) 5.56 (18:10) 0 0 0 0 0
16-06-2020 26.2 (17:20) 13.5 (00:00) 19.9 11.39 (13:30) 6.67 (18:40) 0 0 0 0 0
15-06-2020 27.3 (16:50) 12.9 (00:00) 20.1 10.28 (16:20) 5.83 (18:20) 0 0 0 0 0
14-06-2020 27 (18:00) 13.1 (00:00) 20.1 10 (19:30) 5.83 (18:30) 0 0 0 0 0
13-06-2020 25 (18:00) 9.9 (00:00) 17.4 9.44 (17:50) 5.56 (18:40) 0 0 0 0 0
12-06-2020 20.7 (17:30) 9.9 (00:00) 15.3 12.22 (20:20) 7.78 (00:20) 0.2 0 0 0 0.2
11-06-2020 24.1 (16:20) 11.5 (00:00) 17.8 15 (16:30) 9.72 (18:00) 0 0 0 0 0
10-06-2020 29.8 (16:30) 14.7 (00:00) 22.2 14.72 (15:20) 6.94 (20:10) 0 0 0 0 0
09-06-2020 28 (17:10) 14.3 (00:00) 21.2 11.67 (19:40) 4.44 (18:30) 0 0 0 0 0
08-06-2020 25.1 (18:50) 8.3 (07:00) 16.7 10.28 (18:50) 5 (04:00) 0 0 0 0 0
07-06-2020 24 (17:10) 12.4 (00:00) 18.2 11.94 (18:50) 7.78 (19:30) 0 0 0 0 0

Gráficas

Temp. máximas Temp. mínimas Temp. medias Precipitaciones Rachas de viento máximas Velocidades máximas media en intervalos de 10 minutos

Datos horarios

Fecha y hora oficial Temperatura (ºC) Velocidad del viento (km/h) Dirección del viento Racha (km/h) Dirección de racha Precipitación (mm) Presión (hPa) Tendencia (hPa) Humedad (%)
2020-07-06 23:00:00 33.5 6 Norte 9 Norte 0 -- -- 7
2020-07-06 22:00:00 35 6 Noroeste 21 Norte 0 -- -- 3
2020-07-06 21:00:00 38.2 14 Norte 23 Noroeste 0 -- -- 4
2020-07-06 20:00:00 39.1 11 Noroeste 29 Noroeste 0 -- -- 4
2020-07-06 19:00:00 39.4 14 Noroeste 24 Noroeste 0 -- -- 4
2020-07-06 18:00:00 39.5 13 Noroeste 32 Noroeste 0 -- -- 3
2020-07-06 17:00:00 39.1 11 Norte 34 Noroeste 0 -- -- 4
2020-07-06 16:00:00 38.4 16 Noroeste 29 Noroeste 0 -- -- 5
2020-07-06 15:00:00 39 7 Sur 27 Noroeste 0 -- -- 5
2020-07-06 14:00:00 37.1 9 Norte 20 Norte 0 -- -- 7
2020-07-06 13:00:00 36.2 7 Nordeste 15 Nordeste 0 -- -- 9
2020-07-06 12:00:00 35.2 4 Noroeste 9 Sur 0 -- -- 11
2020-07-06 11:00:00 32.8 5 Oeste 12 Oeste 0 -- -- 15
2020-07-06 10:00:00 30.3 6 Sudoeste 10 Sudoeste 0 -- -- 19
2020-07-06 09:00:00 27 4 Sur 6 Sudoeste 0 -- -- 25
2020-07-06 08:00:00 26.3 2 Norte 3 Oeste 0 -- -- 23
2020-07-06 07:00:00 26.6 3 Nordeste 12 Sudeste 0 -- -- 21
2020-07-06 06:00:00 26.4 10 Sudeste 12 Sudeste 0 -- -- 24
2020-07-06 05:00:00 26.4 5 Sudeste 9 Sur 0 -- -- 24
2020-07-06 04:00:00 27.4 5 Sur 9 Sur 0 -- -- 23
2020-07-06 03:00:00 28.1 8 Sur 15 Sur 0 -- -- 23
2020-07-06 02:00:00 30.1 4 Sur 18 Sudoeste 0 -- -- 18
2020-07-06 01:00:00 31 11 Sur 19 Sur 0 -- -- 15
2020-07-06 00:00:00 31.3 5 Sudeste 11 Nordeste 0 -- -- 12
2020-07-05 23:00:00 33.1 8 Nordeste 13 Nordeste 0 -- -- 10
2020-07-05 22:00:00 34 7 Norte 21 Norte 0 -- -- 9
2020-07-05 21:00:00 36.2 12 Norte 23 Norte 0 -- -- 8
2020-07-05 20:00:00 37.2 13 Norte 32 Noroeste 0 -- -- 8
2020-07-05 19:00:00 38.1 17 Noroeste 37 Noroeste 0 -- -- 8
2020-07-05 18:00:00 37.5 10 Nordeste 18 Sur 0 -- -- 8
2020-07-05 17:00:00 38 10 Sur 25 Sudoeste 0 -- -- 8
2020-07-05 16:00:00 39.2 9 Sur 27 Sur 0 -- -- 7
2020-07-05 15:00:00 37.4 4 Nordeste 21 Sudeste 0 -- -- 7
2020-07-05 14:00:00 36.8 8 Nordeste 29 Sudoeste 0 -- -- 10
2020-07-05 13:00:00 37.3 12 Sur 33 Sur 0 -- -- 9
2020-07-05 12:00:00 34.9 11 Sur 22 Sur 0 -- -- 12
2020-07-05 11:00:00 32.5 13 Sur 21 Sur 0 -- -- 16
2020-07-05 10:00:00 29.8 13 Sur 21 Sudeste 0 -- -- 19
2020-07-05 09:00:00 26.3 16 Sudeste 29 Sudeste 0 -- -- 28
2020-07-05 08:00:00 25.8 18 Sudeste 24 Sudeste 0 -- -- 22
2020-07-05 07:00:00 26.1 5 Sudeste 15 Sudeste 0 -- -- 15
2020-07-05 06:00:00 24.9 7 Sudeste 13 Sudeste 0 -- -- 17
2020-07-05 05:00:00 27 10 Sudeste 15 Sudeste 0 -- -- 15
2020-07-05 04:00:00 28.6 5 Nordeste 8 Nordeste 0 -- -- 13
2020-07-05 03:00:00 29.5 9 Este 13 Este 0 -- -- 11
2020-07-05 02:00:00 28.7 4 Este 9 Sudeste 0 -- -- 12
2020-07-05 01:00:00 28.6 5 Este 13 Sudeste 0 -- -- 12
2020-07-05 00:00:00 30.2 6 Nordeste 14 Norte 0 -- -- 11
2020-07-04 23:00:00 30.8 10 Nordeste 17 Nordeste 0 -- -- 10
2020-07-04 22:00:00 32.3 8 Norte 18 Norte 0 -- -- 6
2020-07-04 21:00:00 34.4 11 Norte 23 Norte 0 -- -- 5
2020-07-04 20:00:00 35.4 13 Norte 28 Norte 0 -- -- 5
2020-07-04 19:00:00 36.2 12 Norte 26 Norte 0 -- -- 5
2020-07-04 18:00:00 36.1 6 Norte 23 Norte 0 -- -- 5
2020-07-04 17:00:00 36.1 6 Norte 23 Oeste 0 -- -- 5
2020-07-04 16:00:00 35.8 11 Norte 36 Sudeste 0 -- -- 6
2020-07-04 15:00:00 34.8 12 Noroeste 54 Oeste 0 -- -- 7
2020-07-04 14:00:00 34.6 4 Oeste 17 Norte 0 -- -- 9
2020-07-04 13:00:00 32.3 8 Norte 14 Nordeste 0 -- -- 12
2020-07-04 12:00:00 30.4 8 Norte 14 Nordeste 0 -- -- 17
2020-07-04 11:00:00 27.7 7 Norte 14 Noroeste 0 -- -- 21
2020-07-04 10:00:00 25 3 Noroeste 8 Noroeste 0 -- -- 29
2020-07-04 09:00:00 22.7 3 Noroeste 5 Noroeste 0 -- -- 34
2020-07-04 08:00:00 20.3 0 Calma 4 Sudeste 0 -- -- 39
2020-07-04 07:00:00 20.6 0 Calma 4 Sudeste 0 -- -- 37
2020-07-04 06:00:00 20.7 3 Sudeste 5 Sudeste 0 -- -- 37
2020-07-04 05:00:00 21.9 3 Sudoeste 6 Sudoeste 0 -- -- 29
2020-07-04 04:00:00 23.2 3 Sur 10 Sudeste 0 -- -- 26
2020-07-04 03:00:00 23.2 7 Sudeste 11 Sudeste 0 -- -- 24
2020-07-04 02:00:00 24.8 3 Noroeste 16 Norte 0 -- -- 21
2020-07-04 01:00:00 26 5 Norte 13 Norte 0 -- -- 18
2020-07-04 00:00:00 27.2 9 Norte 12 Norte 0 -- -- 16
2020-07-03 23:00:00 28 8 Nordeste 11 Norte 0 -- -- 13
2020-07-03 22:00:00 28.8 8 Norte 15 Norte 0 -- -- 13
2020-07-03 21:00:00 31.5 9 Norte 19 Noroeste 0 -- -- 8
2020-07-03 20:00:00 32.1 11 Noroeste 25 Noroeste 0 -- -- 6
2020-07-03 19:00:00 32.5 9 Noroeste 28 Noroeste 0 -- -- 6
2020-07-03 18:00:00 32.6 14 Noroeste 28 Noroeste 0 -- -- 8
2020-07-03 17:00:00 31.1 6 Nordeste 25 Norte 0 -- -- 10
2020-07-03 16:00:00 30.8 9 Norte 19 Oeste 0 -- -- 11
2020-07-03 15:00:00 29.4 9 Norte 17 Noroeste 0 -- -- 14
2020-07-03 14:00:00 28.1 6 Este 16 Este 0 -- -- 18
2020-07-03 13:00:00 26.2 7 Norte 18 Noroeste 0 -- -- 24
2020-07-03 12:00:00 24.1 6 Noroeste 13 Noroeste 0 -- -- 29
2020-07-03 11:00:00 21.7 5 Norte 13 Noroeste 0 -- -- 34
2020-07-03 10:00:00 19 3 Sudoeste 6 Noroeste 0 -- -- 41
2020-07-03 09:00:00 17.1 2 Sudoeste 8 Sudeste 0 -- -- 47
2020-07-03 08:00:00 13.6 5 Sur 10 Sudeste 0 -- -- 58
2020-07-03 07:00:00 13.6 5 Sur 8 Sur 0 -- -- 57
2020-07-03 06:00:00 14.4 3 Sudoeste 8 Sur 0 -- -- 53
2020-07-03 05:00:00 15 4 Sur 13 Sudoeste 0 -- -- 51
2020-07-03 04:00:00 16.3 8 Sudoeste 15 Oeste 0 -- -- 47
2020-07-03 03:00:00 17.8 6 Sudoeste 15 Oeste 0 -- -- 41
2020-07-03 02:00:00 19.4 8 Oeste 17 Oeste 0 -- -- 34
2020-07-03 01:00:00 20.7 6 Oeste 22 Oeste 0 -- -- 31
2020-07-03 00:00:00 22.5 11 Noroeste 23 Oeste 0 -- -- 28
2020-07-02 23:00:00 24 10 Noroeste 26 Oeste 0 -- -- 26
2020-07-02 22:00:00 26 14 Noroeste 32 Noroeste 0 -- -- 22
2020-07-02 21:00:00 28.7 19 Noroeste 36 Oeste 0 -- -- 16
2020-07-02 20:00:00 29.9 25 Noroeste 37 Noroeste 0 -- -- 20
2020-07-02 19:00:00 31.6 17 Noroeste 38 Oeste 0 -- -- 19
2020-07-02 18:00:00 32.3 22 Oeste 41 Oeste 0 -- -- 13
2020-07-02 17:00:00 31.6 24 Oeste 38 Oeste 0 -- -- 13
2020-07-02 16:00:00 31.6 23 Oeste 39 Oeste 0 -- -- 14
2020-07-02 15:00:00 31.1 20 Oeste 36 Oeste 0 -- -- 18
2020-07-02 14:00:00 30.6 19 Oeste 33 Oeste 0 -- -- 18
2020-07-02 13:00:00 29.1 12 Noroeste 24 Oeste 0 -- -- 22
2020-07-02 12:00:00 27.3 6 Noroeste 22 Noroeste 0 -- -- 31
2020-07-02 11:00:00 24.8 9 Oeste 19 Oeste 0 -- -- 37
2020-07-02 10:00:00 22.8 9 Oeste 20 Oeste 0 -- -- 48
2020-07-02 09:00:00 20.7 13 Oeste 17 Oeste 0 -- -- 57
2020-07-02 08:00:00 18.2 6 Sur 11 Sudoeste 0 -- -- 66
2020-07-02 07:00:00 18.7 4 Sur 9 Sudoeste 0 -- -- 63
2020-07-02 06:00:00 19.6 4 Sur 11 Sur 0 -- -- 59
2020-07-02 05:00:00 20.2 5 Sur 10 Sudoeste 0 -- -- 55
2020-07-02 04:00:00 21.6 3 Oeste 14 Oeste 0 -- -- 48
2020-07-02 03:00:00 22.7 3 Noroeste 15 Oeste 0 -- -- 42
2020-07-02 02:00:00 24.1 5 Noroeste 11 Oeste 0 -- -- 36
2020-07-02 01:00:00 25.4 5 Oeste 17 Oeste 0 -- -- 30
2020-07-02 00:00:00 26.6 9 Oeste 18 Noroeste 0 -- -- 27
2020-07-01 23:00:00 28.4 8 Noroeste 18 Noroeste 0 -- -- 22
2020-07-01 22:00:00 30.1 14 Noroeste 30 Noroeste 0 -- -- 20
2020-07-01 21:00:00 32.9 14 Noroeste 33 Noroeste 0 -- -- 14
2020-07-01 20:00:00 33.9 15 Noroeste 33 Noroeste 0 -- -- 15
2020-07-01 19:00:00 34.5 16 Noroeste 33 Oeste 0 -- -- 12
2020-07-01 18:00:00 35.5 13 Noroeste 34 Oeste 0 -- -- 13
2020-07-01 17:00:00 34.8 12 Noroeste 29 Oeste 0 -- -- 12
2020-07-01 16:00:00 33.9 14 Oeste 32 Oeste 0 -- -- 14
2020-07-01 15:00:00 33.1 14 Oeste 30 Noroeste 0 -- -- 18
2020-07-01 14:00:00 32.4 13 Noroeste 28 Oeste 0 -- -- 19
2020-07-01 13:00:00 32 14 Sudoeste 27 Oeste 0 -- -- 21
2020-07-01 12:00:00 30.6 17 Sudoeste 28 Oeste 0 -- -- 20
2020-07-01 11:00:00 -- 12 Oeste 18 Sudoeste -- -- -- --
2020-07-01 10:00:00 26.3 9 Sudoeste 15 Sudoeste 0 -- -- 36
2020-07-01 09:00:00 24.8 9 Sur 13 Sudoeste 0 -- -- 39
2020-07-01 08:00:00 21.8 7 Sur 13 Sur 0 -- -- 48
2020-07-01 07:00:00 21.1 7 Sur 10 Sur 0 -- -- 49
2020-07-01 06:00:00 21.9 5 Sur 12 Sur 0 -- -- 49
2020-07-01 05:00:00 22.6 7 Sudoeste 12 Sudoeste 0 -- -- 44
2020-07-01 04:00:00 23 6 Sur 12 Oeste 0 -- -- 42
2020-07-01 03:00:00 23.9 5 Sur 10 Sudoeste 0 -- -- 37
2020-07-01 02:00:00 25.4 6 Sudoeste 12 Sudoeste 0 -- -- 34
2020-07-01 01:00:00 27.1 4 Oeste 15 Sudoeste 0 -- -- 29
2020-07-01 00:00:00 28.2 11 Sur 14 Sur 0 -- -- 22
2020-06-30 23:00:00 30.1 8 Noroeste 21 Norte 0 -- -- 19
2020-06-30 22:00:00 31.7 13 Noroeste 31 Noroeste 0 -- -- 17
2020-06-30 21:00:00 34.2 19 Noroeste 34 Noroeste 0 -- -- 13
2020-06-30 20:00:00 35.8 21 Norte 36 Noroeste 0 -- -- 13
2020-06-30 19:00:00 36.4 18 Noroeste 34 Norte 0 -- -- 14
2020-06-30 18:00:00 36.6 14 Noroeste 25 Noroeste 0 -- -- 12
2020-06-30 17:00:00 37.2 12 Norte 24 Norte 0 -- -- 12
2020-06-30 16:00:00 37.6 13 Noroeste 32 Oeste 0 -- -- 10
2020-06-30 15:00:00 37.9 12 Sudoeste 28 Sudoeste 0 -- -- 12
2020-06-30 14:00:00 36 5 Este 24 Sur 0 -- -- 14
2020-06-30 13:00:00 35.9 5 Sudeste 26 Sudoeste 0 -- -- 15
2020-06-30 12:00:00 34.4 7 Sudoeste 17 Sudoeste 0 -- -- 20
2020-06-30 11:00:00 32.6 6 Sur 13 Sudoeste 0 -- -- 23
2020-06-30 10:00:00 29.7 3 Sudoeste 7 Sudoeste 0 -- -- 27
2020-06-30 09:00:00 28 4 Sudeste 6 Sudeste 0 -- -- 30
2020-06-30 08:00:00 24.7 0 Calma 6 Sur 0 -- -- 37
2020-06-30 07:00:00 24.8 5 Sur 8 Sur 0 -- -- 37
2020-06-30 06:00:00 24.5 6 Sur 10 Sur 0 -- -- 38
2020-06-30 05:00:00 24.7 3 Sur 10 Sur 0 -- -- 38
2020-06-30 04:00:00 25 5 Sur 8 Sudeste 0 -- -- 36
2020-06-30 03:00:00 26.1 3 Sur 7 Sudeste 0 -- -- 31
2020-06-30 02:00:00 28 4 Sudoeste 11 Sudoeste 0 -- -- 25
2020-06-30 01:00:00 29.4 4 Sur 9 Sudoeste 0 -- -- 22
2020-06-30 00:00:00 30.5 4 Sudoeste 8 Norte 0 -- -- 21
2020-06-29 23:00:00 32 6 Norte 12 Noroeste 0 -- -- 19
2020-06-29 22:00:00 32.9 8 Norte 17 Norte 0 -- -- 19
2020-06-29 21:00:00 34.8 10 Norte 18 Norte 0 -- -- 16
2020-06-29 20:00:00 36.2 10 Norte 24 Norte 0 -- -- 15
2020-06-29 19:00:00 36 15 Norte 34 Noroeste 0 -- -- 15
2020-06-29 18:00:00 36.2 13 Norte 25 Norte 0 -- -- 15
2020-06-29 17:00:00 38.1 12 Sur 23 Oeste 0 -- -- 13
2020-06-29 16:00:00 36.2 5 Este 19 Sudoeste 0 -- -- 15
2020-06-29 15:00:00 36.5 10 Sur 25 Oeste 0 -- -- 14
2020-06-29 14:00:00 34.6 7 Sudoeste 18 Sudoeste 0 -- -- 18
2020-06-29 13:00:00 32.7 8 Norte 18 Nordeste 0 -- -- 21
2020-06-29 12:00:00 30.9 8 Nordeste 15 Nordeste 0 -- -- 26
2020-06-29 11:00:00 28.7 6 Norte 12 Nordeste 0 -- -- 33
2020-06-29 10:00:00 26.8 5 Norte 9 Norte 0 -- -- 39
2020-06-29 09:00:00 24.8 2 Noroeste 5 Sudeste 0 -- -- 45
2020-06-29 08:00:00 21.8 3 Sur 4 Sur 0 -- -- 53
2020-06-29 07:00:00 22.1 0 Calma 4 Sur 0 -- -- 52
2020-06-29 06:00:00 22.6 2 Sur 5 Sudeste 0 -- -- 49
2020-06-29 05:00:00 23.1 0 Calma 6 Sudeste 0 -- -- 46
2020-06-29 04:00:00 23.8 3 Sur 6 Sudoeste 0 -- -- 43
2020-06-29 03:00:00 24.8 3 Sur 9 Sudeste 0 -- -- 38
2020-06-29 02:00:00 26.1 4 Sur 10 Sur 0 -- -- 30
2020-06-29 01:00:00 27.6 3 Noroeste 6 Norte 0 -- -- 27
2020-06-29 00:00:00 28.4 6 Norte 12 Noroeste 0 -- -- 26
2020-06-28 23:00:00 29.5 9 Norte 14 Norte 0 -- -- 24
2020-06-28 22:00:00 30.7 9 Norte 20 Noroeste 0 -- -- 20
2020-06-28 21:00:00 33.1 16 Norte 27 Noroeste 0 -- -- 15
2020-06-28 20:00:00 34 16 Noroeste 30 Norte 0 -- -- 15
2020-06-28 19:00:00 34.1 17 Noroeste 30 Oeste 0 -- -- 17
2020-06-28 18:00:00 34.6 12 Noroeste 26 Oeste 0 -- -- 17
2020-06-28 17:00:00 34.1 8 Oeste 29 Noroeste 0 -- -- 19
2020-06-28 16:00:00 33.6 6 Nordeste 27 Oeste 0 -- -- 20
2020-06-28 15:00:00 32.8 10 Oeste 22 Oeste 0 -- -- 21
2020-06-28 14:00:00 31.8 4 Noroeste 22 Noroeste 0 -- -- 23
2020-06-28 13:00:00 29.4 8 Nordeste 17 Norte 0 -- -- 29
2020-06-28 12:00:00 28.4 6 Norte 16 Norte 0 -- -- 32
2020-06-28 11:00:00 26.3 6 Norte 12 Norte 0 -- -- 39
2020-06-28 10:00:00 24 4 Noroeste 8 Noroeste 0 -- -- 46
2020-06-28 09:00:00 22.7 2 Sur 5 Sur 0 -- -- 52
2020-06-28 08:00:00 19 3 Sur 5 Sur 0 -- -- 66
2020-06-28 07:00:00 19 0 Calma 4 Sudeste 0 -- -- 65
2020-06-28 06:00:00 19.5 2 Sur 6 Sudoeste 0 -- -- 61
2020-06-28 05:00:00 20.3 4 Sur 7 Sur 0 -- -- 56
2020-06-28 04:00:00 20.8 4 Sur 8 Sudoeste 0 -- -- 54
2020-06-28 03:00:00 21.7 4 Sudoeste 10 Oeste 0 -- -- 49
2020-06-28 02:00:00 22.7 5 Sudoeste 12 Oeste 0 -- -- 46
2020-06-28 01:00:00 24 5 Oeste 16 Noroeste 0 -- -- 42
2020-06-28 00:00:00 25.2 13 Noroeste 21 Noroeste 0 -- -- 36
2020-06-27 23:00:00 26.4 4 Noroeste 9 Noroeste 0 -- -- 25
2020-06-27 22:00:00 28 5 Noroeste 17 Noroeste 0 -- -- 22
2020-06-27 21:00:00 30.4 11 Noroeste 24 Noroeste 0 -- -- 19
2020-06-27 20:00:00 30.7 11 Noroeste 28 Noroeste 0 -- -- 19
2020-06-27 19:00:00 30.8 10 Norte 27 Noroeste 0 -- -- 20
2020-06-27 18:00:00 31.4 15 Noroeste 28 Noroeste 0 -- -- 21
2020-06-27 17:00:00 30.8 15 Oeste 27 Noroeste 0 -- -- 23
2020-06-27 16:00:00 30.3 14 Oeste 32 Oeste 0 -- -- 25
2020-06-27 15:00:00 28.7 12 Noroeste 27 Noroeste 0 -- -- 28
2020-06-27 14:00:00 27.8 10 Noroeste 22 Oeste 0 -- -- 31
2020-06-27 13:00:00 26.7 8 Oeste 25 Oeste 0 -- -- 34
2020-06-27 12:00:00 24.1 6 Norte 17 Noroeste 0 -- -- 41
2020-06-27 11:00:00 21.4 6 Oeste 18 Oeste 0 -- -- 51
2020-06-27 10:00:00 19.9 8 Oeste 15 Noroeste 0 -- -- 57
2020-06-27 09:00:00 18.3 9 Sudoeste 15 Oeste 0 -- -- 63
2020-06-27 08:00:00 16 3 Sudoeste 10 Oeste 0 -- -- 68
2020-06-27 07:00:00 16.2 3 Sur 10 Sudoeste 0 -- -- 64
2020-06-27 06:00:00 16.7 5 Sudoeste 12 Sudoeste 0 -- -- 60
2020-06-27 05:00:00 17.1 3 Sudoeste 9 Sudoeste 0 -- -- 53
2020-06-27 04:00:00 17.7 5 Sudoeste 12 Sudoeste 0 -- -- 49
2020-06-27 03:00:00 19.1 5 Sudoeste 13 Sudoeste 0 -- -- 46
2020-06-27 02:00:00 20.2 8 Oeste 20 Oeste 0 -- -- 44
2020-06-27 01:00:00 21.1 3 Noroeste 14 Oeste 0 -- -- 37
2020-06-27 00:00:00 22 7 Noroeste 13 Oeste 0 -- -- 29
2020-06-26 23:00:00 22.7 4 Noroeste 17 Noroeste 0 -- -- 24
2020-06-26 22:00:00 24.2 13 Noroeste 28 Noroeste 0 -- -- 20
2020-06-26 21:00:00 26.1 18 Noroeste 34 Noroeste 0 -- -- 23
2020-06-26 20:00:00 26.8 20 Noroeste 36 Noroeste 0 -- -- 23
2020-06-26 19:00:00 29.5 19 Noroeste 37 Oeste 0 -- -- 15
2020-06-26 18:00:00 30.1 20 Oeste 38 Oeste 0 -- -- 16
2020-06-26 17:00:00 30.2 17 Noroeste 40 Noroeste 0 -- -- 17
2020-06-26 16:00:00 29.1 17 Oeste 34 Oeste 0 -- -- 16
2020-06-26 15:00:00 29.3 15 Noroeste 31 Oeste 0 -- -- 16
2020-06-26 14:00:00 28.7 13 Oeste 25 Sudoeste 0 -- -- 17
2020-06-26 13:00:00 26.8 11 Oeste 23 Sudoeste 0 -- -- 23
2020-06-26 12:00:00 24.8 9 Oeste 23 Oeste 0 -- -- 29
2020-06-26 11:00:00 22.2 6 Oeste 19 Oeste 0 -- -- 37
2020-06-26 10:00:00 19.7 5 Noroeste 13 Noroeste 0 -- -- 49
2020-06-26 09:00:00 19.1 8 Norte 13 Norte 0 -- -- 50
2020-06-26 08:00:00 17.9 3 Noroeste 15 Sur 0 -- -- 48
2020-06-26 07:00:00 18.3 9 Sur 13 Sur 0 -- -- 44
2020-06-26 06:00:00 18.4 8 Sudoeste 13 Sur 0 -- -- 41
2020-06-26 05:00:00 19.2 7 Sur 13 Sur 0 -- -- 40
2020-06-26 04:00:00 20 6 Sur 14 Sudoeste 0 -- -- 40
2020-06-26 03:00:00 20.8 12 Sudoeste 16 Sudoeste 0 -- -- 35
2020-06-26 02:00:00 21.7 8 Sudoeste 17 Sudoeste 0 -- -- 32
2020-06-26 01:00:00 23.1 10 Oeste 15 Oeste 0 -- -- 28
2020-06-26 00:00:00 25 4 Noroeste 13 Oeste 0 -- -- 27
2020-06-25 23:00:00 26.3 10 Oeste 24 Noroeste 0 -- -- 26
2020-06-25 22:00:00 28.1 17 Noroeste 31 Noroeste 0 -- -- 26
2020-06-25 21:00:00 31 16 Noroeste 32 Sudoeste 0 -- -- 25
2020-06-25 20:00:00 34.3 18 Oeste 31 Oeste 0 -- -- 13
2020-06-25 19:00:00 35.3 20 Oeste 32 Oeste 0 -- -- 11
2020-06-25 18:00:00 36.1 12 Sudoeste 32 Sudoeste 0 -- -- 10
2020-06-25 17:00:00 36.3 19 Sudoeste 33 Sudoeste 0 -- -- 11
2020-06-25 16:00:00 36.1 12 Sudoeste 32 Sudoeste 0 -- -- 12
2020-06-25 15:00:00 35.4 16 Sur 33 Sudoeste 0 -- -- 13
2020-06-25 14:00:00 32.2 7 Noroeste 24 Noroeste 0 -- -- 18
2020-06-25 13:00:00 30.4 8 Noroeste 17 Norte 0 -- -- 21
2020-06-25 12:00:00 28.3 4 Nordeste 15 Nordeste 0 -- -- 26
2020-06-25 11:00:00 27 8 Norte 13 Norte 0 -- -- 28
2020-06-25 10:00:00 25.8 3 Norte 9 Oeste 0 -- -- 28
2020-06-25 09:00:00 24.2 5 Sudoeste 9 Sudoeste 0 -- -- 32
2020-06-25 08:00:00 21.9 5 Sur 10 Sudoeste 0 -- -- 37
2020-06-25 07:00:00 22.4 7 Sudoeste 17 Sur 0 -- -- 37
2020-06-25 06:00:00 23.2 10 Sur 17 Sur 0 -- -- 36
2020-06-25 05:00:00 23.6 10 Sur 17 Sur 0 -- -- 33
2020-06-25 04:00:00 23.9 6 Sur 13 Sur 0 -- -- 32
2020-06-25 03:00:00 24.9 7 Sur 10 Sudoeste 0 -- -- 33
2020-06-25 02:00:00 26.1 4 Sudoeste 8 Noroeste 0 -- -- 30
2020-06-25 01:00:00 27.3 4 Noroeste 16 Noroeste 0 -- -- 28
2020-06-25 00:00:00 28.3 4 Noroeste 9 Noroeste 0 -- -- 26
2020-06-24 23:00:00 29.3 4 Noroeste 13 Noroeste 0 -- -- 24
2020-06-24 22:00:00 31 8 Norte 19 Noroeste 0 -- -- 22
2020-06-24 21:00:00 33.2 14 Noroeste 28 Noroeste 0 -- -- 18
2020-06-24 20:00:00 34.3 19 Noroeste 36 Norte 0 -- -- 17
2020-06-24 19:00:00 35.7 16 Noroeste 49 Oeste 0 -- -- 16
2020-06-24 18:00:00 36.6 10 Oeste 28 Oeste 0 -- -- 12
2020-06-24 17:00:00 36.5 7 Sur 23 Noroeste 0 -- -- 12
2020-06-24 16:00:00 34.5 12 Nordeste 22 Nordeste 0 -- -- 17
2020-06-24 15:00:00 33.9 8 Norte 18 Noroeste 0 -- -- 18
2020-06-24 14:00:00 32.4 8 Noroeste 18 Nordeste 0 -- -- 21
2020-06-24 13:00:00 31.4 8 Norte 23 Norte 0 -- -- 22
2020-06-24 12:00:00 29.6 7 Norte 17 Nordeste 0 -- -- 26
2020-06-24 11:00:00 27.8 7 Este 16 Este 0 -- -- 29
2020-06-24 10:00:00 26.3 8 Norte 14 Norte 0 -- -- 33
2020-06-24 09:00:00 25.1 3 Norte 8 Sudeste 0 -- -- 34
2020-06-24 08:00:00 22.7 4 Sur 13 Oeste 0 -- -- 40
2020-06-24 07:00:00 23.2 6 Sudoeste 15 Sur 0 -- -- 39
2020-06-24 06:00:00 24.3 4 Norte 14 Sudeste 0 -- -- 37
2020-06-24 05:00:00 24.3 10 Sur 29 Sur 0 -- -- 36
2020-06-24 04:00:00 25 14 Sur 25 Sudoeste 0 -- -- 34
2020-06-24 03:00:00 26.2 15 Sur 22 Sur 0 -- -- 30
2020-06-24 02:00:00 27.4 9 Sur 21 Sur 0 -- -- 24
2020-06-24 01:00:00 28.8 9 Sur 18 Sudoeste 0 -- -- 20
2020-06-24 00:00:00 30.5 11 Sur 21 Sudoeste 0 -- -- 14
2020-06-23 23:00:00 33.1 15 Sudoeste 47 Este 0 -- -- 11
2020-06-23 22:00:00 34.5 30 Sur 61 Sur 0 -- -- 7
2020-06-23 21:00:00 34.9 28 Sudoeste 37 Sur 0 -- -- 10
2020-06-23 20:00:00 37 12 Sudoeste 33 Sudoeste 0 -- -- 7
2020-06-23 19:00:00 39.5 12 Sudoeste 28 Sur 0 -- -- 5
2020-06-23 18:00:00 40 17 Sur 28 Sur 0 -- -- 5
2020-06-23 17:00:00 39.9 17 Sur 34 Sur 0 -- -- 5
2020-06-23 16:00:00 38.3 7 Sudoeste 27 Sudeste 0 -- -- 7
2020-06-23 15:00:00 36.9 5 Nordeste 28 Sur 0 -- -- 8
2020-06-23 14:00:00 37.6 13 Sur 27 Sudeste 0 -- -- 7
2020-06-23 13:00:00 35.8 9 Sudeste 23 Sudeste 0 -- -- 9
2020-06-23 12:00:00 34.4 9 Sur 23 Sur 0 -- -- 11
2020-06-23 11:00:00 32.2 9 Sudeste 18 Sudeste 0 -- -- 13
2020-06-23 10:00:00 30.1 12 Sudeste 32 Sudeste 0 -- -- 15
2020-06-23 09:00:00 28.4 21 Sudeste 32 Sudeste 0 -- -- 16
2020-06-23 08:00:00 25.8 15 Sur 36 Sur 0 -- -- 19
2020-06-23 07:00:00 27.3 24 Sur 37 Sur 0 -- -- 16
2020-06-23 06:00:00 27 18 Sudeste 30 Sudeste 0 -- -- 16
2020-06-23 05:00:00 27.2 13 Sudeste 24 Sudeste 0 -- -- 15
2020-06-23 04:00:00 28.2 18 Sudeste 32 Sudeste 0 -- -- 15
2020-06-23 03:00:00 28.5 13 Sur 31 Sudeste 0 -- -- 13
2020-06-23 02:00:00 29.1 13 Sudeste 25 Sudeste 0 -- -- 13
2020-06-23 01:00:00 30.1 14 Sudeste 21 Sudeste 0 -- -- 11
2020-06-23 00:00:00 30.6 12 Sudeste 22 Sur 0 -- -- 10
2020-06-22 23:00:00 31.6 11 Sudeste 21 Sudeste 0 -- -- 9
2020-06-22 22:00:00 32.8 9 Sur 25 Sudoeste 0 -- -- 9
2020-06-22 21:00:00 36.7 13 Sudoeste 21 Sudoeste 0 -- -- 5
2020-06-22 20:00:00 38.2 12 Sur 24 Sudoeste 0 -- -- 4
2020-06-22 19:00:00 38.9 15 Oeste 29 Sudoeste 0 -- -- 3
2020-06-22 18:00:00 39.3 9 Sudoeste 30 Sudoeste 0 -- -- 4
2020-06-22 17:00:00 39 17 Sur 33 Sur 0 -- -- 5
2020-06-22 16:00:00 39.1 11 Sur 30 Sudeste 0 -- -- 5
2020-06-22 15:00:00 37.5 12 Sudoeste 23 Sudeste 0 -- -- 7
2020-06-22 14:00:00 36.3 10 Sudeste 32 Sudeste 0 -- -- 7
2020-06-22 13:00:00 35.9 14 Sur 24 Sur 0 -- -- 7
2020-06-22 12:00:00 33.6 5 Sudeste 17 Sudeste 0 -- -- 11
2020-06-22 11:00:00 30.7 3 Oeste 10 Sudoeste 0 -- -- 16
2020-06-22 10:00:00 27.4 2 Oeste 4 Oeste 0 -- -- 20
2020-06-22 09:00:00 25.3 2 Sudoeste 10 Nordeste 0 -- -- 23
2020-06-22 08:00:00 22.6 11 Nordeste 13 Nordeste 0 -- -- 26
2020-06-22 07:00:00 22.4 2 Nordeste 6 Nordeste 0 -- -- 26
2020-06-22 06:00:00 22.7 4 Nordeste 8 Norte 0 -- -- 25
2020-06-22 05:00:00 22.9 0 Calma 2 Nordeste 0 -- -- 23
2020-06-22 04:00:00 23.8 0 Calma 5 Norte 0 -- -- 20
2020-06-22 03:00:00 24.2 0 Calma 3 Sur 0 -- -- 18
2020-06-22 02:00:00 25.9 3 Norte 10 Norte 0 -- -- 16
2020-06-22 01:00:00 27.2 6 Norte 9 Norte 0 -- -- 14
2020-06-22 00:00:00 27.6 5 Norte 15 Norte 0 -- -- 14
2020-06-21 23:00:00 28.5 10 Norte 17 Norte 0 -- -- 14
2020-06-21 22:00:00 29.8 8 Norte 17 Noroeste 0 -- -- 13
2020-06-21 21:00:00 32.4 9 Noroeste 23 Noroeste 0 -- -- 10
2020-06-21 20:00:00 33.5 9 Noroeste 22 Noroeste 0 -- -- 9
2020-06-21 19:00:00 33.9 10 Noroeste 23 Noroeste 0 -- -- 6
2020-06-21 18:00:00 33.4 8 Norte 27 Norte 0 -- -- 8
2020-06-21 17:00:00 33.4 11 Noroeste 26 Noroeste 0 -- -- 7
2020-06-21 16:00:00 32.2 8 Norte 23 Noroeste 0 -- -- 11
2020-06-21 15:00:00 31.7 10 Noroeste 23 Norte 0 -- -- 9
2020-06-21 14:00:00 30.4 4 Norte 17 Noroeste 0 -- -- 10
2020-06-21 13:00:00 28 6 Norte 14 Noroeste 0 -- -- 16
2020-06-21 12:00:00 26.2 6 Norte 17 Noroeste 0 -- -- 26
2020-06-21 11:00:00 23.7 5 Norte 11 Noroeste 0 -- -- 37
2020-06-21 10:00:00 21.4 4 Sudoeste 9 Sur 0 -- -- 44
2020-06-21 09:00:00 18.9 2 Sudoeste 7 Noroeste 0 -- -- 52
2020-06-21 08:00:00 16.6 3 Noroeste 6 Oeste 0 -- -- 59
2020-06-21 07:00:00 17.3 2 Este 10 Sudeste 0 -- -- 55
2020-06-21 06:00:00 17.5 3 Sur 9 Sur 0 -- -- 52
2020-06-21 05:00:00 18.3 6 Sur 10 Sur 0 -- -- 48
2020-06-21 04:00:00 18.9 5 Sur 10 Sur 0 -- -- 47
2020-06-21 03:00:00 20.3 4 Sur 9 Oeste 0 -- -- 44
2020-06-21 02:00:00 21.5 4 Sudoeste 10 Sudoeste 0 -- -- 38
2020-06-21 01:00:00 23.3 2 Oeste 13 Oeste 0 -- -- 29
2020-06-21 00:00:00 24.5 6 Norte 12 Noroeste 0 -- -- 23
2020-06-20 23:00:00 26.2 9 Noroeste 16 Noroeste 0 -- -- 20
2020-06-20 22:00:00 27.9 10 Noroeste 26 Noroeste 0 -- -- 15
2020-06-20 21:00:00 30.5 17 Noroeste 29 Noroeste 0 -- -- 12
2020-06-20 20:00:00 31.8 18 Noroeste 35 Noroeste 0 -- -- 11
2020-06-20 19:00:00 32.5 17 Noroeste 33 Noroeste 0 -- -- 11
2020-06-20 18:00:00 32.3 17 Norte 36 Norte 0 -- -- 11
2020-06-20 17:00:00 33 13 Oeste 29 Oeste 0 -- -- 11
2020-06-20 16:00:00 32.6 16 Noroeste 31 Oeste 0 -- -- 11
2020-06-20 15:00:00 32.1 10 Noroeste 29 Oeste 0 -- -- 10
2020-06-20 14:00:00 31.4 8 Oeste 20 Oeste 0 -- -- 12
2020-06-20 13:00:00 29.3 6 Oeste 17 Oeste 0 -- -- 16
2020-06-20 12:00:00 27.8 4 Sur 13 Sudeste 0 -- -- 18
2020-06-20 11:00:00 26.2 5 Oeste 14 Oeste 0 -- -- 17
2020-06-20 10:00:00 23.9 3 Norte 7 Oeste 0 -- -- 29
2020-06-20 09:00:00 21.3 3 Norte 7 Norte 0 -- -- 35
2020-06-20 08:00:00 18.5 3 Sudeste 5 Sudeste 0 -- -- 42
2020-06-20 07:00:00 18.2 3 Sur 8 Sudeste 0 -- -- 42
2020-06-20 06:00:00 17.8 4 Sur 8 Sur 0 -- -- 41
2020-06-20 05:00:00 17.8 6 Sur 9 Sur 0 -- -- 39
2020-06-20 04:00:00 18.6 5 Sur 8 Sur 0 -- -- 32
2020-06-20 03:00:00 19.7 3 Sur 8 Sur 0 -- -- 29
2020-06-20 02:00:00 20.5 4 Sur 8 Sur 0 -- -- 25
2020-06-20 01:00:00 21.7 3 Sur 6 Sur 0 -- -- 23
2020-06-20 00:00:00 22.9 2 Oeste 10 Noroeste 0 -- -- 21
2020-06-19 23:00:00 24 7 Noroeste 15 Norte 0 -- -- 20
2020-06-19 22:00:00 25.4 11 Norte 26 Noroeste 0 -- -- 19
2020-06-19 21:00:00 28.1 17 Noroeste 27 Noroeste 0 -- -- 15
2020-06-19 20:00:00 29.4 17 Noroeste 30 Noroeste 0 -- -- 13
2020-06-19 19:00:00 30.2 12 Noroeste 32 Noroeste 0 -- -- 13
2020-06-19 18:00:00 30.4 17 Oeste 27 Noroeste 0 -- -- 11
2020-06-19 17:00:00 30.5 9 Noroeste 29 Noroeste 0 -- -- 11
2020-06-19 16:00:00 30.2 14 Oeste 32 Oeste 0 -- -- 11
2020-06-19 15:00:00 29.6 14 Oeste 28 Oeste 0 -- -- 13
2020-06-19 14:00:00 28.5 14 Oeste 32 Oeste 0 -- -- 14
2020-06-19 13:00:00 26.5 9 Oeste 24 Oeste 0 -- -- 18
2020-06-19 12:00:00 24.1 6 Oeste 17 Oeste 0 -- -- 26
2020-06-19 11:00:00 21.3 5 Sudoeste 11 Sudoeste 0 -- -- 36
2020-06-19 10:00:00 18.9 5 Oeste 11 Sudoeste 0 -- -- 43
2020-06-19 09:00:00 16.9 6 Sur 10 Sur 0 -- -- 49
2020-06-19 08:00:00 13.7 6 Sur 10 Sur 0 -- -- 60
2020-06-19 07:00:00 13.7 4 Sur 11 Sudoeste 0 -- -- 58
2020-06-19 06:00:00 14.6 5 Sudoeste 14 Sur 0 -- -- 54
2020-06-19 05:00:00 15.4 7 Sur 12 Sudoeste 0 -- -- 51
2020-06-19 04:00:00 16 7 Sur 12 Sudoeste 0 -- -- 49
2020-06-19 03:00:00 17.3 6 Sudoeste 12 Sudoeste 0 -- -- 47
2020-06-19 02:00:00 18.6 3 Noroeste 13 Oeste 0 -- -- 44
2020-06-19 01:00:00 20.2 8 Oeste 14 Oeste 0 -- -- 41
2020-06-19 00:00:00 21.5 4 Noroeste 14 Noroeste 0 -- -- 32
2020-06-18 23:00:00 22.8 5 Norte 16 Norte 0 -- -- 18
2020-06-18 22:00:00 24.5 13 Noroeste 28 Noroeste 0 -- -- 15
2020-06-18 21:00:00 27.1 14 Noroeste 31 Noroeste 0 -- -- 13
2020-06-18 20:00:00 28.6 19 Noroeste 29 Noroeste 0 -- -- 11
2020-06-18 19:00:00 29.6 11 Noroeste 39 Noroeste 0 -- -- 12
2020-06-18 18:00:00 29.7 13 Noroeste 30 Oeste 0 -- -- 13
2020-06-18 17:00:00 28.8 15 Noroeste 28 Noroeste 0 -- -- 14
2020-06-18 16:00:00 30.1 13 Sudoeste 27 Sudoeste 0 -- -- 13
2020-06-18 15:00:00 27.9 9 Noroeste 24 Noroeste 0 -- -- 16
2020-06-18 14:00:00 27 6 Sur 25 Sudoeste 0 -- -- 20
2020-06-18 13:00:00 25.5 12 Sudoeste 26 Sudoeste 0 -- -- 23
2020-06-18 12:00:00 23.3 4 Sudeste 12 Sur 0 -- -- 28
2020-06-18 11:00:00 20.9 5 Oeste 10 Oeste 0 -- -- 34
2020-06-18 10:00:00 18.9 4 Oeste 13 Sudoeste 0 -- -- 42
2020-06-18 09:00:00 16.6 6 Sur 9 Sur 0 -- -- 50
2020-06-18 08:00:00 13.2 5 Sur 8 Sudoeste 0 -- -- 61
2020-06-18 07:00:00 13.5 4 Sur 9 Sur 0 -- -- 60
2020-06-18 06:00:00 13.7 5 Sur 9 Sur 0 -- -- 60
2020-06-18 05:00:00 14.6 4 Sur 10 Sudoeste 0 -- -- 57
2020-06-18 04:00:00 15.6 4 Sudoeste 8 Sudoeste 0 -- -- 52
2020-06-18 03:00:00 16.6 2 Oeste 9 Sudoeste 0 -- -- 48
2020-06-18 02:00:00 17.9 2 Oeste 8 Noroeste 0 -- -- 43
2020-06-18 01:00:00 18.8 4 Noroeste 10 Oeste 0 -- -- 38
2020-06-18 00:00:00 19.3 3 Noroeste 8 Noroeste 0 -- -- 35
2020-06-17 23:00:00 20.5 3 Oeste 8 Oeste 0 -- -- 30
2020-06-17 22:00:00 22.2 4 Noroeste 20 Oeste 0 -- -- 23
2020-06-17 21:00:00 24.4 12 Noroeste 27 Norte 0 -- -- 17
2020-06-17 20:00:00 25.3 14 Noroeste 30 Noroeste 0 -- -- 16
2020-06-17 19:00:00 25.4 12 Oeste 32 Noroeste 0 -- -- 15
2020-06-17 18:00:00 25.7 18 Oeste 35 Oeste 0 -- -- 16
2020-06-17 17:00:00 25.5 16 Noroeste 34 Noroeste 0 -- -- 16
2020-06-17 16:00:00 25.3 19 Oeste 33 Oeste 0 -- -- 17
2020-06-17 15:00:00 23.5 19 Oeste 32 Oeste 0 -- -- 22
2020-06-17 14:00:00 23.8 17 Oeste 31 Oeste 0 -- -- 22
2020-06-17 13:00:00 21.9 14 Oeste 32 Oeste 0 -- -- 28
2020-06-17 12:00:00 19.7 13 Oeste 26 Oeste 0 -- -- 35
2020-06-17 11:00:00 17.8 13 Oeste 22 Oeste 0 -- -- 46
2020-06-17 10:00:00 15.9 10 Noroeste 18 Noroeste 0 -- -- 52
2020-06-17 09:00:00 14.3 10 Oeste 16 Oeste 0 -- -- 61
2020-06-17 08:00:00 11.7 0 Calma 9 Sudoeste 0 -- -- 71
2020-06-17 07:00:00 12.2 3 Oeste 15 Oeste 0 -- -- 65
2020-06-17 06:00:00 13 3 Oeste 11 Oeste 0 -- -- 64
2020-06-17 05:00:00 14.2 5 Noroeste 10 Oeste 0 -- -- 62
2020-06-17 04:00:00 15.4 3 Noroeste 11 Noroeste 0 -- -- 61
2020-06-17 03:00:00 16.4 4 Oeste 22 Noroeste 0 -- -- 58
2020-06-17 02:00:00 17.5 10 Noroeste 19 Oeste 0 -- -- 55
2020-06-17 01:00:00 18.5 7 Noroeste 24 Noroeste 0 -- -- 50
2020-06-17 00:00:00 19.8 15 Norte 28 Noroeste 0 -- -- 46
2020-06-16 23:00:00 21.6 10 Noroeste 28 Norte 0 -- -- 38
2020-06-16 22:00:00 22.8 15 Noroeste 33 Oeste 0 -- -- 36
2020-06-16 21:00:00 24.8 21 Noroeste 33 Noroeste 0 -- -- 32
2020-06-16 20:00:00 25.5 23 Noroeste 37 Noroeste 0 -- -- 29
2020-06-16 19:00:00 26.1 21 Noroeste 39 Oeste 0 -- -- 28
2020-06-16 18:00:00 25.6 19 Noroeste 40 Noroeste 0 -- -- 29
2020-06-16 17:00:00 25.8 20 Noroeste 36 Noroeste 0 -- -- 31
2020-06-16 16:00:00 25.5 22 Oeste 35 Oeste 0 -- -- 32
2020-06-16 15:00:00 24.6 21 Noroeste 36 Oeste 0 -- -- 34
2020-06-16 14:00:00 24.6 19 Oeste 41 Noroeste 0 -- -- 32
2020-06-16 13:00:00 23.3 20 Noroeste 34 Noroeste 0 -- -- 32
2020-06-16 12:00:00 22.3 16 Noroeste 27 Noroeste 0 -- -- 34
2020-06-16 11:00:00 20.4 14 Noroeste 26 Noroeste 0 -- -- 40
2020-06-16 10:00:00 18.4 9 Oeste 18 Oeste 0 -- -- 51
2020-06-16 09:00:00 16.1 8 Oeste 15 Oeste 0 -- -- 61
2020-06-16 08:00:00 13.5 3 Sudoeste 7 Sur 0 -- -- 72
2020-06-16 07:00:00 13.9 5 Sudoeste 10 Sudoeste 0 -- -- 70
2020-06-16 06:00:00 15 2 Oeste 10 Oeste 0 -- -- 63
2020-06-16 05:00:00 16 3 Norte 17 Noroeste 0 -- -- 58
2020-06-16 04:00:00 17.4 11 Noroeste 19 Oeste 0 -- -- 52
2020-06-16 03:00:00 18.3 12 Oeste 19 Noroeste 0 -- -- 47
2020-06-16 02:00:00 18.8 11 Noroeste 23 Oeste 0 -- -- 45
2020-06-16 01:00:00 19.5 11 Noroeste 23 Noroeste 0 -- -- 41
2020-06-16 00:00:00 20.3 12 Noroeste 21 Noroeste 0 -- -- 36
2020-06-15 23:00:00 21 6 Noroeste 19 Oeste 0 -- -- 32
2020-06-15 22:00:00 22.4 9 Noroeste 25 Oeste 0 -- -- 28
2020-06-15 21:00:00 23.8 15 Noroeste 33 Noroeste 0 -- -- 25
2020-06-15 20:00:00 25.5 18 Oeste 30 Oeste 0 -- -- 22
2020-06-15 19:00:00 26.1 18 Noroeste 32 Oeste 0 -- -- 21
2020-06-15 18:00:00 27.2 16 Oeste 37 Noroeste 0 -- -- 18
2020-06-15 17:00:00 27.2 15 Noroeste 37 Oeste 0 -- -- 17
2020-06-15 16:00:00 26 18 Noroeste 35 Noroeste 0 -- -- 20
2020-06-15 15:00:00 25.7 14 Oeste 34 Oeste 0 -- -- 21
2020-06-15 14:00:00 25.8 15 Sudoeste 28 Sudoeste 0 -- -- 23
2020-06-15 13:00:00 23.4 14 Oeste 27 Sudoeste 0 -- -- 28
2020-06-15 12:00:00 22.1 12 Oeste 23 Oeste 0 -- -- 31
2020-06-15 11:00:00 20 7 Oeste 19 Noroeste 0 -- -- 35
2020-06-15 10:00:00 18.7 5 Oeste 12 Sudoeste 0 -- -- 41
2020-06-15 09:00:00 16.6 5 Sudoeste 10 Sudoeste 0 -- -- 51
2020-06-15 08:00:00 13.4 4 Sur 7 Sur 0 -- -- 64
2020-06-15 07:00:00 13.1 2 Sudeste 8 Sur 0 -- -- 66
2020-06-15 06:00:00 13.3 3 Sur 6 Sur 0 -- -- 63
2020-06-15 05:00:00 14.1 3 Sudoeste 9 Sudoeste 0 -- -- 59
2020-06-15 04:00:00 14.8 5 Sudoeste 9 Sudoeste 0 -- -- 55
2020-06-15 03:00:00 15.8 3 Oeste 10 Oeste 0 -- -- 50
2020-06-15 02:00:00 17 4 Noroeste 14 Noroeste 0 -- -- 45
2020-06-15 01:00:00 18 5 Noroeste 14 Noroeste 0 -- -- 39
2020-06-15 00:00:00 18.8 5 Noroeste 11 Noroeste 0 -- -- 34
2020-06-14 23:00:00 19.9 8 Noroeste 22 Noroeste 0 -- -- 30
2020-06-14 22:00:00 21.5 13 Noroeste 27 Noroeste 0 -- -- 27
2020-06-14 21:00:00 24 14 Noroeste 35 Noroeste 0 -- -- 23
2020-06-14 20:00:00 25 19 Noroeste 36 Noroeste 0 -- -- 21
2020-06-14 19:00:00 26.3 17 Oeste 35 Oeste 0 -- -- 18
2020-06-14 18:00:00 27 16 Oeste 32 Oeste 0 -- -- 19
2020-06-14 17:00:00 26.6 17 Oeste 30 Oeste 0 -- -- 20
2020-06-14 16:00:00 26.1 8 Noroeste 33 Oeste 0 -- -- 20
2020-06-14 15:00:00 25.9 17 Sudoeste 30 Oeste 0 -- -- 22
2020-06-14 14:00:00 24.1 13 Noroeste 34 Noroeste 0 -- -- 25
2020-06-14 13:00:00 24.1 13 Oeste 27 Noroeste 0 -- -- 24
2020-06-14 12:00:00 21.9 10 Oeste 21 Oeste 0 -- -- 31
2020-06-14 11:00:00 20.8 8 Oeste 17 Oeste 0 -- -- 34
2020-06-14 10:00:00 18.6 4 Oeste 9 Oeste 0 -- -- 42
2020-06-14 09:00:00 17.1 3 Sur 5 Sudoeste 0 -- -- 47
2020-06-14 08:00:00 13.1 2 Sudoeste 4 Sudoeste 0 -- -- 59
2020-06-14 07:00:00 13.3 0 Calma 3 Sudoeste 0 -- -- 57
2020-06-14 06:00:00 13.7 0 Calma 2 Sudoeste 0 -- -- 53
2020-06-14 05:00:00 14.4 0 Calma 5 Norte 0 -- -- 47
2020-06-14 04:00:00 15.2 4 Norte 9 Norte 0 -- -- 45
2020-06-14 03:00:00 15.7 0 Calma 5 Norte 0 -- -- 39
2020-06-14 02:00:00 16.6 3 Norte 5 Norte 0 -- -- 37
2020-06-14 01:00:00 17.1 2 Norte 10 Norte 0 -- -- 35
2020-06-14 00:00:00 18.1 7 Norte 14 Noroeste 0 -- -- 32
2020-06-13 23:00:00 18.6 7 Norte 16 Noroeste 0 -- -- 31
2020-06-13 22:00:00 19.5 13 Noroeste 22 Noroeste 0 -- -- 29
2020-06-13 21:00:00 22 15 Noroeste 26 Noroeste 0 -- -- 24
2020-06-13 20:00:00 23 12 Noroeste 29 Oeste 0 -- -- 22
2020-06-13 19:00:00 23.9 12 Noroeste 32 Oeste 0 -- -- 20
2020-06-13 18:00:00 25 16 Oeste 34 Oeste 0 -- -- 19
2020-06-13 17:00:00 24.1 17 Oeste 33 Oeste 0 -- -- 21
2020-06-13 16:00:00 21.6 8 Noroeste 26 Noroeste 0 -- -- 27
2020-06-13 15:00:00 21.9 10 Noroeste 29 Sudoeste 0 -- -- 28
2020-06-13 14:00:00 20.8 10 Oeste 23 Oeste 0 -- -- 31
2020-06-13 13:00:00 20.2 6 Noroeste 22 Oeste 0 -- -- 35
2020-06-13 12:00:00 17.6 10 Noroeste 19 Noroeste 0 -- -- 46
2020-06-13 11:00:00 16.6 11 Norte 19 Noroeste 0 -- -- 53
2020-06-13 10:00:00 14.1 9 Noroeste 16 Oeste 0 -- -- 70
2020-06-13 09:00:00 12.5 8 Oeste 13 Oeste 0 -- -- 80
2020-06-13 08:00:00 10.1 3 Sur 10 Sudoeste 0 -- -- 90
2020-06-13 07:00:00 10 6 Sudoeste 9 Oeste 0 -- -- 88
2020-06-13 06:00:00 10.5 4 Oeste 9 Oeste 0 -- -- 86
2020-06-13 05:00:00 10.8 4 Sudoeste 15 Sudoeste 0 -- -- 82
2020-06-13 04:00:00 11.5 7 Sudoeste 11 Sudoeste 0 -- -- 77
2020-06-13 03:00:00 12.4 5 Noroeste 14 Oeste 0 -- -- 72
2020-06-13 02:00:00 12.8 3 Oeste 7 Oeste 0 -- -- 67
2020-06-13 01:00:00 13.1 5 Sudoeste 11 Oeste 0 -- -- 66
2020-06-13 00:00:00 14.2 7 Oeste 14 Oeste 0 -- -- 61
2020-06-12 23:00:00 15.1 9 Noroeste 15 Noroeste 0 -- -- 58
2020-06-12 22:00:00 15.5 10 Noroeste 21 Noroeste 0 -- -- 60
2020-06-12 21:00:00 15.8 8 Noroeste 44 Noroeste 0.2 -- -- 62
2020-06-12 20:00:00 19 19 Oeste 34 Oeste 0 -- -- 34
2020-06-12 19:00:00 19.8 22 Oeste 33 Oeste 0 -- -- 33
2020-06-12 18:00:00 20 22 Oeste 34 Oeste 0 -- -- 32
2020-06-12 17:00:00 20.3 23 Oeste 36 Oeste 0 -- -- 31
2020-06-12 16:00:00 19.7 22 Oeste 35 Sudoeste 0 -- -- 33
2020-06-12 15:00:00 19.6 21 Oeste 34 Oeste 0 -- -- 32
2020-06-12 14:00:00 17.2 18 Oeste 33 Oeste 0 -- -- 42
2020-06-12 13:00:00 17 18 Oeste 30 Oeste 0 -- -- 44
2020-06-12 12:00:00 16 14 Oeste 34 Oeste 0 -- -- 44
2020-06-12 11:00:00 15.3 14 Noroeste 28 Oeste 0 -- -- 48
2020-06-12 10:00:00 13.6 16 Oeste 26 Noroeste 0 -- -- 56
2020-06-12 09:00:00 12.4 17 Oeste 29 Oeste 0 -- -- 64
2020-06-12 08:00:00 10.4 13 Oeste 21 Oeste 0 -- -- 70
2020-06-12 07:00:00 9.9 8 Oeste 17 Oeste 0 -- -- 72
2020-06-12 06:00:00 10.3 5 Oeste 24 Noroeste 0 -- -- 70
2020-06-12 05:00:00 11.5 18 Noroeste 30 Oeste 0 -- -- 57
2020-06-12 04:00:00 12.3 13 Oeste 34 Oeste 0 -- -- 63
2020-06-12 03:00:00 13.3 22 Oeste 37 Oeste 0 -- -- 55
2020-06-12 02:00:00 14.4 20 Noroeste 40 Oeste 0 -- -- 54
2020-06-12 01:00:00 15.5 17 Noroeste 43 Oeste 0 -- -- 53
2020-06-12 00:00:00 16.4 24 Oeste 37 Oeste 0 -- -- 53
2020-06-11 23:00:00 16.9 22 Noroeste 39 Noroeste 0 -- -- 58
2020-06-11 22:00:00 17.3 21 Noroeste 38 Noroeste 0 -- -- 58
2020-06-11 21:00:00 17.9 30 Noroeste 51 Noroeste 0 -- -- 59
2020-06-11 20:00:00 20.6 25 Oeste 45 Oeste 0 -- -- 41
2020-06-11 19:00:00 21.2 30 Oeste 45 Oeste 0 -- -- 39
2020-06-11 18:00:00 21 35 Oeste 49 Oeste 0 -- -- 38
2020-06-11 17:00:00 22.2 34 Oeste 54 Oeste 0 -- -- 35
2020-06-11 16:00:00 23.3 32 Oeste 52 Oeste 0 -- -- 32
2020-06-11 15:00:00 23.2 28 Oeste 46 Oeste 0 -- -- 33
2020-06-11 14:00:00 22.7 28 Oeste 42 Oeste 0 -- -- 25
2020-06-11 13:00:00 21.6 27 Oeste 38 Oeste 0 -- -- 28
2020-06-11 12:00:00 20.4 17 Oeste 31 Oeste 0 -- -- 35
2020-06-11 11:00:00 17.4 16 Oeste 27 Oeste 0 -- -- 47
2020-06-11 10:00:00 15.9 14 Oeste 26 Sudoeste 0 -- -- 53
2020-06-11 09:00:00 13.9 16 Oeste 25 Sudoeste 0 -- -- 59
2020-06-11 08:00:00 11.7 9 Sudoeste 16 Sudoeste 0 -- -- 65
2020-06-11 07:00:00 12.3 10 Sur 15 Sudoeste 0 -- -- 66
2020-06-11 06:00:00 13 10 Sudoeste 18 Sudoeste 0 -- -- 58
2020-06-11 05:00:00 13.8 10 Sudoeste 17 Sudoeste 0 -- -- 57
2020-06-11 04:00:00 14.9 10 Sudoeste 17 Sudoeste 0 -- -- 55
2020-06-11 03:00:00 16 10 Sudoeste 20 Noroeste 0 -- -- 55
2020-06-11 02:00:00 17.8 14 Noroeste 27 Noroeste 0 -- -- 48
2020-06-11 01:00:00 19.2 11 Noroeste 29 Oeste 0 -- -- 39
2020-06-11 00:00:00 20.3 7 Noroeste 17 Noroeste 0 -- -- 31
2020-06-10 23:00:00 21.7 12 Noroeste 20 Noroeste 0 -- -- 24
2020-06-10 22:00:00 23.2 12 Noroeste 34 Noroeste 0 -- -- 19
2020-06-10 21:00:00 25.1 23 Noroeste 39 Noroeste 0 -- -- 16
2020-06-10 20:00:00 27.4 20 Noroeste 41 Noroeste 0 -- -- 15
2020-06-10 19:00:00 28.7 17 Oeste 32 Noroeste 0 -- -- 15
2020-06-10 18:00:00 29.4 16 Oeste 41 Noroeste 0 -- -- 13
2020-06-10 17:00:00 29.4 12 Noroeste 33 Oeste 0 -- -- 11
2020-06-10 16:00:00 28.3 7 Sudeste 53 Oeste 0 -- -- 14
2020-06-10 15:00:00 28.2 7 Sudoeste 30 Noroeste 0 -- -- 15
2020-06-10 14:00:00 27 7 Norte 28 Oeste 0 -- -- 18
2020-06-10 13:00:00 26.1 11 Noroeste 20 Norte 0 -- -- 19
2020-06-10 12:00:00 24.3 4 Oeste 14 Oeste 0 -- -- 23
2020-06-10 11:00:00 22.8 6 Sudoeste 15 Sudoeste 0 -- -- 28
2020-06-10 10:00:00 19.9 4 Oeste 8 Sudoeste 0 -- -- 34
2020-06-10 09:00:00 18 2 Norte 7 Sudeste 0 -- -- 36
2020-06-10 08:00:00 14.9 0 Calma 4 Oeste 0 -- -- 47
2020-06-10 07:00:00 14.7 0 Calma 7 Sudeste 0 -- -- 47
2020-06-10 06:00:00 14.9 5 Sur 8 Sur 0 -- -- 48
2020-06-10 05:00:00 15.5 3 Sur 7 Sur 0 -- -- 46
2020-06-10 04:00:00 16.5 3 Sur 7 Sudoeste 0 -- -- 44
2020-06-10 03:00:00 17.9 3 Oeste 10 Oeste 0 -- -- 39
2020-06-10 02:00:00 19 4 Sudoeste 17 Noroeste 0 -- -- 33
2020-06-10 01:00:00 20.4 5 Noroeste 15 Norte 0 -- -- 27
2020-06-10 00:00:00 21.1 8 Norte 18 Noroeste 0 -- -- 24
2020-06-09 23:00:00 22.6 7 Noroeste 13 Norte 0 -- -- 18
2020-06-09 22:00:00 23.5 8 Norte 21 Norte 0 -- -- 17
2020-06-09 21:00:00 25.9 12 Noroeste 23 Noroeste 0 -- -- 14
2020-06-09 20:00:00 27 14 Noroeste 42 Noroeste 0 -- -- 11
2020-06-09 19:00:00 27.6 12 Noroeste 28 Noroeste 0 -- -- 11
2020-06-09 18:00:00 27.2 12 Norte 28 Noroeste 0 -- -- 12
2020-06-09 17:00:00 27.9 11 Oeste 23 Oeste 0 -- -- 13
2020-06-09 16:00:00 27.1 10 Noroeste 21 Oeste 0 -- -- 13
2020-06-09 15:00:00 26.6 8 Sudoeste 21 Norte 0 -- -- 15
2020-06-09 14:00:00 25.1 5 Este 18 Nordeste 0 -- -- 17
2020-06-09 13:00:00 24.4 10 Norte 21 Noroeste 0 -- -- 19
2020-06-09 12:00:00 23 6 Norte 13 Norte 0 -- -- 21
2020-06-09 11:00:00 20.9 7 Nordeste 17 Nordeste 0 -- -- 27
2020-06-09 10:00:00 19.2 7 Nordeste 14 Nordeste 0 -- -- 29
2020-06-09 09:00:00 17.7 2 Noroeste 5 Noroeste 0 -- -- 34
2020-06-09 08:00:00 14.3 0 Calma 2 Sudoeste 0 -- -- 40
2020-06-09 07:00:00 14.5 0 Calma 5 Sudeste 0 -- -- 39
2020-06-09 06:00:00 15 2 Oeste 5 Noroeste 0 -- -- 36
2020-06-09 05:00:00 15.6 2 Sudoeste 12 Nordeste 0 -- -- 36
2020-06-09 04:00:00 16.7 3 Sur 19 Este 0 -- -- 33
2020-06-09 03:00:00 17.2 5 Nordeste 8 Nordeste 0 -- -- 31
2020-06-09 02:00:00 17.7 2 Norte 8 Nordeste 0 -- -- 31
2020-06-09 01:00:00 18.6 5 Norte 11 Norte 0 -- -- 29
2020-06-09 00:00:00 19.1 5 Norte 10 Norte 0 -- -- 32
2020-06-08 23:00:00 20.1 5 Norte 11 Norte 0 -- -- 31
2020-06-08 22:00:00 21.3 6 Norte 19 Noroeste 0 -- -- 29
2020-06-08 21:00:00 23.4 14 Noroeste 26 Noroeste 0 -- -- 24
2020-06-08 20:00:00 24.5 12 Norte 25 Norte 0 -- -- 22
2020-06-08 19:00:00 24.5 10 Noroeste 37 Oeste 0 -- -- 21
2020-06-08 18:00:00 24.4 11 Noroeste 26 Noroeste 0 -- -- 23
2020-06-08 17:00:00 23.5 14 Noroeste 31 Noroeste 0 -- -- 25
2020-06-08 16:00:00 23.2 8 Norte 33 Noroeste 0 -- -- 28
2020-06-08 15:00:00 21.9 12 Noroeste 28 Noroeste 0 -- -- 32
2020-06-08 14:00:00 20.9 12 Noroeste 25 Noroeste 0 -- -- 35
2020-06-08 13:00:00 19.3 10 Norte 18 Noroeste 0 -- -- 37
2020-06-08 12:00:00 17.5 6 Noroeste 17 Oeste 0 -- -- 42
2020-06-08 11:00:00 15.4 7 Noroeste 12 Oeste 0 -- -- 50
2020-06-08 10:00:00 13.4 3 Oeste 13 Oeste 0 -- -- 58
2020-06-08 09:00:00 11.2 5 Sudoeste 11 Oeste 0 -- -- 71
2020-06-08 08:00:00 8.4 5 Sur 13 Sur 0 -- -- 82
2020-06-08 07:00:00 8.3 7 Sur 16 Sudoeste 0 -- -- 77
2020-06-08 06:00:00 9 9 Sudoeste 16 Oeste 0 -- -- 71
2020-06-08 05:00:00 9.9 12 Oeste 26 Oeste 0 -- -- 66
2020-06-08 04:00:00 11.1 18 Oeste 25 Sudoeste 0 -- -- 61
2020-06-08 03:00:00 12.6 4 Oeste 18 Oeste 0 -- -- 53
2020-06-08 02:00:00 14.2 8 Noroeste 20 Oeste 0 -- -- 47
2020-06-08 01:00:00 15.5 9 Noroeste 21 Oeste 0 -- -- 43
2020-06-08 00:00:00 16.9 15 Oeste 23 Oeste 0 -- -- 49
2020-06-07 23:00:00 18 12 Oeste 28 Oeste 0 -- -- 49
2020-06-07 22:00:00 19 18 Oeste 37 Oeste 0 -- -- 45
2020-06-07 21:00:00 20.2 24 Oeste 40 Noroeste 0 -- -- 42
2020-06-07 20:00:00 21.6 27 Oeste 43 Oeste 0 -- -- 38
2020-06-07 19:00:00 23.5 26 Oeste 43 Oeste 0 -- -- 33
2020-06-07 18:00:00 23.6 27 Oeste 40 Oeste 0 -- -- 33
2020-06-07 17:00:00 23.4 25 Oeste 42 Oeste 0 -- -- 35
2020-06-07 16:00:00 23.2 20 Oeste 41 Oeste 0 -- -- 35
2020-06-07 15:00:00 22.2 20 Oeste 33 Oeste 0 -- -- 39
2020-06-07 14:00:00 20.3 14 Oeste 30 Oeste 0 -- -- 44
2020-06-07 13:00:00 18.2 18 Oeste 28 Oeste 0 -- -- 50
2020-06-07 12:00:00 15.8 18 Oeste 28 Oeste 0 -- -- 64
2020-06-07 11:00:00 15 17 Oeste 25 Oeste 0 -- -- 66
2020-06-07 10:00:00 14.5 19 Oeste 29 Sudoeste 0 -- -- 67
2020-06-07 09:00:00 14.1 19 Oeste 29 Oeste 0 -- -- 67
2020-06-07 08:00:00 13.3 7 Oeste 19 Oeste 0 -- -- 77
2020-06-07 07:00:00 12.6 17 Oeste 25 Oeste 0 -- -- 76
2020-06-07 06:00:00 13.5 9 Oeste 21 Oeste 0 -- -- 70
2020-06-07 05:00:00 14.6 17 Oeste 23 Oeste 0 -- -- 67
2020-06-07 04:00:00 14.9 12 Noroeste 26 Oeste 0 -- -- 66
2020-06-07 03:00:00 16.1 17 Oeste 25 Oeste 0 -- -- 63
2020-06-07 02:00:00 17.5 7 Oeste 16 Oeste 0 -- -- 53
2020-06-07 01:00:00 19.1 7 Noroeste 18 Oeste 0 -- -- 42
2020-06-07 00:00:00 20.4 12 Noroeste 34 Noroeste 0 -- -- 37